Map

Track Data

SID SEASON NUMBER BASIN SUBBASIN NAME ISO_TIME NATURE LAT LON WMO_WIND WMO_PRES WMO_AGENCY TRACK_TYPE DIST2LAND LANDFALL IFLAG USA_AGENCY USA_ATCF_ID USA_LAT USA_LON USA_RECORD USA_STATUS USA_WIND USA_PRES USA_SSHS USA_R34_NE USA_R34_SE USA_R34_SW USA_R34_NW USA_R50_NE USA_R50_SE USA_R50_SW USA_R50_NW USA_R64_NE USA_R64_SE USA_R64_SW USA_R64_NW USA_POCI USA_ROCI USA_RMW USA_EYE TOKYO_LAT TOKYO_LON TOKYO_GRADE TOKYO_WIND TOKYO_PRES TOKYO_R50_DIR TOKYO_R50_LONG TOKYO_R50_SHORT TOKYO_R30_DIR TOKYO_R30_LONG TOKYO_R30_SHORT TOKYO_LAND CMA_LAT CMA_LON CMA_CAT CMA_WIND CMA_PRES HKO_LAT HKO_LON HKO_CAT HKO_WIND HKO_PRES NEWDELHI_LAT NEWDELHI_LON NEWDELHI_GRADE NEWDELHI_WIND NEWDELHI_PRES NEWDELHI_CI NEWDELHI_DP NEWDELHI_POCI REUNION_LAT REUNION_LON REUNION_TYPE REUNION_WIND REUNION_PRES REUNION_TNUM REUNION_CI REUNION_RMW REUNION_R34_NE REUNION_R34_SE REUNION_R34_SW REUNION_R34_NW REUNION_R50_NE REUNION_R50_SE REUNION_R50_SW REUNION_R50_NW REUNION_R64_NE REUNION_R64_SE REUNION_R64_SW REUNION_R64_NW BOM_LAT BOM_LON BOM_TYPE BOM_WIND BOM_PRES BOM_TNUM BOM_CI BOM_RMW BOM_R34_NE BOM_R34_SE BOM_R34_SW BOM_R34_NW BOM_R50_NE BOM_R50_SE BOM_R50_SW BOM_R50_NW BOM_R64_NE BOM_R64_SE BOM_R64_SW BOM_R64_NW BOM_ROCI BOM_POCI BOM_EYE BOM_POS_METHOD BOM_PRES_METHOD NADI_LAT NADI_LON NADI_CAT NADI_WIND NADI_PRES WELLINGTON_LAT WELLINGTON_LON WELLINGTON_WIND WELLINGTON_PRES DS824_LAT DS824_LON DS824_STAGE DS824_WIND DS824_PRES TD9636_LAT TD9636_LON TD9636_STAGE TD9636_WIND TD9636_PRES TD9635_LAT TD9635_LON TD9635_WIND TD9635_PRES TD9635_ROCI NEUMANN_LAT NEUMANN_LON NEUMANN_CLASS NEUMANN_WIND NEUMANN_PRES MLC_LAT MLC_LON MLC_CLASS MLC_WIND MLC_PRES USA_GUST BOM_GUST BOM_GUST_PER REUNION_GUST REUNION_GUST_PER USA_SEAHGT USA_SEARAD_NE USA_SEARAD_SE USA_SEARAD_SW USA_SEARAD_NW STORM_SPEED STORM_DIR
1935336N08148 1935 70 WP MM NOT_NAMED 1935-12-02 10:00:00 NR 7.90000 148.200 main 1124 1124 __________O___ -1 7.90000 148.200 7 6 325
1935336N08148 1935 70 WP MM NOT_NAMED 1935-12-02 12:00:00 NR 8.07646 148.076 main 1145 1144 __________P___ -1 8.07646 148.076 7 6 325
1935336N08148 1935 70 WP MM NOT_NAMED 1935-12-02 15:00:00 NR 8.33744 147.893 main 1166 1177 __________P___ -1 8.33744 147.893 7 6 325
1935336N08148 1935 70 WP MM NOT_NAMED 1935-12-02 18:00:00 NR 8.58899 147.716 main 1199 1199 __________P___ -1 8.58899 147.716 7 6 325
1935336N08148 1935 70 WP MM NOT_NAMED 1935-12-02 21:00:00 NR 8.82548 147.552 main 1221 1221 __________P___ -1 8.82548 147.552 7 6 325
1935336N08148 1935 70 WP MM NOT_NAMED 1935-12-02 22:00:00 NR 8.90000 147.500 main 1232 1232 __________O___ -1 8.90000 147.500 7 5 325
1935336N08148 1935 70 WP MM NOT_NAMED 1935-12-03 00:00:00 NR 9.04161 147.402 main 1243 1255 __________P___ -1 9.04161 147.402 7 5 325
1935336N08148 1935 70 WP MM NOT_NAMED 1935-12-03 03:00:00 NR 9.23530 147.262 main 1266 1266 __________P___ -1 9.23530 147.262 7 5 323
1935336N08148 1935 70 WP MM NOT_NAMED 1935-12-03 06:00:00 NR 9.40656 147.118 main 1288 1288 __________P___ -1 9.40656 147.118 7 4 317
1935336N08148 1935 70 WP MM NOT_NAMED 1935-12-03 09:00:00 NR 9.55538 146.959 main 1311 1311 __________P___ -1 9.55538 146.959 7 4 312
1935336N08148 1935 70 WP MM NOT_NAMED 1935-12-03 10:00:00 NR 9.60000 146.900 main 1311 1311 __________O___ -1 9.60000 146.900 7 4 304
1935336N08148 1935 70 WP MM NOT_NAMED 1935-12-03 12:00:00 NR 9.66792 146.790 main 1322 1322 __________P___ -1 9.66792 146.790 7 4 298
1935336N08148 1935 70 WP MM NOT_NAMED 1935-12-03 15:00:00 NR 9.75056 146.608 main 1333 1333 __________P___ -1 9.75056 146.608 7 4 293
1935336N08148 1935 70 WP MM NOT_NAMED 1935-12-03 18:00:00 NR 9.83522 146.387 main 1333 1333 __________P___ -1 9.83522 146.387 7 5 292
1935336N08148 1935 70 WP MM NOT_NAMED 1935-12-03 21:00:00 NR 9.95011 146.109 main 1356 1356 __________P___ -1 9.95011 146.109 7 6 293
1935336N08148 1935 70 WP MM NOT_NAMED 1935-12-03 22:00:00 NR 10.0000 146.000 main 1357 1357 __________O___ -1 10.0000 146.000 7 8 293
1935336N08148 1935 70 WP MM NOT_NAMED 1935-12-04 00:00:00 NR 10.1118 145.728 main 1370 1370 __________P___ -1 10.1118 145.728 7 10 294
1935336N08148 1935 70 WP MM NOT_NAMED 1935-12-04 03:00:00 NR 10.3166 145.262 main 1396 1398 __________P___ -1 10.3166 145.262 7 10 296
1935336N08148 1935 70 WP MM NOT_NAMED 1935-12-04 06:00:00 NR 10.5715 144.778 main 1436 1436 __________P___ -1 10.5715 144.778 7 11 302
1935336N08148 1935 70 WP MM NOT_NAMED 1935-12-04 09:00:00 NR 10.8826 144.331 main 1478 1478 __________P___ -1 10.8826 144.331 7 11 307
1935336N08148 1935 70 WP MM NOT_NAMED 1935-12-04 10:00:00 NR 11.0000 144.200 main 1491 1491 __________O___ -1 11.0000 144.200 7 10 320
1935336N08148 1935 70 WP MM NOT_NAMED 1935-12-04 12:00:00 NR 11.2540 144.011 main 1528 1528 __________P___ -1 11.2540 144.011 7 10 329
1935336N08148 1935 70 WP MM NOT_NAMED 1935-12-04 15:00:00 NR 11.6856 143.786 main 1576 1576 __________P___ -1 11.6856 143.786 7 10 335
1935336N08148 1935 70 WP MM NOT_NAMED 1935-12-04 18:00:00 NR 12.1560 143.590 main 1636 1636 __________P___ -1 12.1560 143.590 7 10 337
1935336N08148 1935 70 WP MM NOT_NAMED 1935-12-04 21:00:00 NR 12.6400 143.380 main 1684 1695 __________P___ -1 12.6400 143.380 7 11 336
1935336N08148 1935 70 WP MM NOT_NAMED 1935-12-04 22:00:00 NR 12.8000 143.300 main 1708 1708 __________O___ -1 12.8000 143.300 7 11 332
1935336N08148 1935 70 WP MM NOT_NAMED 1935-12-05 00:00:00 NR 13.1181 143.116 main 1733 1733 __________P___ -1 13.1181 143.116 7 11 329
1935336N08148 1935 70 WP MM NOT_NAMED 1935-12-05 03:00:00 NR 13.5958 142.809 main 1776 1776 __________P___ -1 13.5958 142.809 7 11 326
1935336N08148 1935 70 WP MM NOT_NAMED 1935-12-05 06:00:00 NR 14.0547 142.457 main 1820 1800 __________P___ -1 14.0547 142.457 7 12 320
1935336N08148 1935 70 WP MM NOT_NAMED 1935-12-05 09:00:00 NR 14.4732 142.050 main 1800 1792 __________P___ -1 14.4732 142.050 7 12 315
1935336N08148 1935 70 WP MM NOT_NAMED 1935-12-05 10:00:00 NR 14.6000 141.900 main 1792 1765 __________O___ -1 14.6000 141.900 7 12 311
1935336N08148 1935 70 WP MM NOT_NAMED 1935-12-05 12:00:00 NR 14.8467 141.597 main 1765 1718 __________P___ -1 14.8467 141.597 7 12 306
1935336N08148 1935 70 WP MM NOT_NAMED 1935-12-05 15:00:00 NR 15.1730 141.093 main 1718 1659 __________P___ -1 15.1730 141.093 7 12 300
1935336N08148 1935 70 WP MM NOT_NAMED 1935-12-05 18:00:00 NR 15.4417 140.532 main 1659 1600 __________P___ -1 15.4417 140.532 7 12 293
1935336N08148 1935 70 WP MM NOT_NAMED 1935-12-05 21:00:00 NR 15.6468 139.917 main 1600 1581 __________P___ -1 15.6468 139.917 7 13 288
1935336N08148 1935 70 WP MM NOT_NAMED 1935-12-05 22:00:00 NR 15.7000 139.700 main 1581 1542 __________O___ -1 15.7000 139.700 7 13 281
1935336N08148 1935 70 WP MM NOT_NAMED 1935-12-06 00:00:00 NR 15.7717 139.250 main 1542 1459 __________P___ -1 15.7717 139.250 7 14 276
1935336N08148 1935 70 WP MM NOT_NAMED 1935-12-06 03:00:00 NR 15.8222 138.532 main 1459 1387 __________P___ -1 15.8222 138.532 7 14 273
1935336N08148 1935 70 WP MM NOT_NAMED 1935-12-06 06:00:00 NR 15.8429 137.787 main 1387 1308 __________P___ -1 15.8429 137.787 7 14 272
1935336N08148 1935 70 WP MM NOT_NAMED 1935-12-06 09:00:00 NR 15.8777 137.043 main 1308 1287 __________P___ -1 15.8777 137.043 7 14 273
1935336N08148 1935 70 WP MM NOT_NAMED 1935-12-06 10:00:00 NR 15.9000 136.800 main 1287 1240 __________O___ -1 15.9000 136.800 7 14 277
1935336N08148 1935 70 WP MM NOT_NAMED 1935-12-06 12:00:00 NR 15.9676 136.326 main 1240 1173 __________P___ -1 15.9676 136.326 7 14 281
1935336N08148 1935 70 WP MM NOT_NAMED 1935-12-06 15:00:00 NR 16.1180 135.639 main 1173 1122 __________P___ -1 16.1180 135.639 7 13 285
1935336N08148 1935 70 WP MM NOT_NAMED 1935-12-06 18:00:00 NR 16.3105 134.973 main 1122 1063 __________P___ -1 16.3105 134.973 7 13 288
1935336N08148 1935 70 WP MM NOT_NAMED 1935-12-06 21:00:00 NR 16.5262 134.318 main 1063 1049 __________P___ -1 16.5262 134.318 7 13 289
1935336N08148 1935 70 WP MM NOT_NAMED 1935-12-06 22:00:00 NR 16.6000 134.100 main 1049 __________O___ -1 16.6000 134.100 7 13 290

Digital Typhoon Data and Search

About IBTrACS Database

This database is a web-friendly format of International Best Track Archive for Climate Stewardship (IBTrACS), a global best track data archive curated by NOAA dating back to 1842.

Updated: 2021-10-08